HRT - Hurlburt Fld

Pirep is a free, collaborative database of all public and private airports located within the United States. All pilots are welcome to contribute, edit, and improve any airport they have local knowledge about, no registration required.
Are you familiar with this airport? Help out other pilots by adding your local knowledge.
Uploaded photos will be licensed under a CC BY-SA 4.0 license. Please only upload photos you have the rights to use.
Tags
Undocu­mented
METAR / TAF
Edit Tags
Food
Camping
Lodging
Car Rental
Bicycles
Swimming
Golfing
Fishing
Hot Springs
Museum
Flying Clubs
Airpark
Upcoming Events
No upcoming events. Is anything happening here soon?
*
*
*

Where exactly on/near the airport is this event taking place?

Is there a webpage with more information for this event?

Who should be contacted for more information?

What is this event all about?

Repeat every
Description
Transient Parking
Fuel Location
Landing & Tie-down Fees
Crew Car Availability
Flying Clubs
WiFi Access
Airport Statistics
Location: Mary Esther, FL
Elevation: 36ft
Sectional: New Orleans
Fuel: A++ (prices)
Runway 18/36: 9,600ft
Access: Private to everyone
This is a military facility.
Current Weather — VFR
  • Weather data is strictly informational and not for flight planning purposes.
  • METAR
    2024-05-29 10:55:00 CDT
    Ceiling Wind Temperature Dewpoint Weather Visbility
    16,000ft 90° @ 7kt 86°F 55°F N/A 10SM
    Clouds: Scattered @ 14,000ft, Broken @ 16,000ft
    Raw: KHRT 291555Z 09007KT 10SM SCT140 BKN160 30/13 A3011 RMK AO2A SLP194 T03010129 $
  • TAF
    2024-05-29 05:00:00 CDT – 2024-05-29 07:00:00 CDT
    Ceiling Wind Weather Visbility
    15,000ft 50° @ 9kt N/A 6SM
    Clouds: Broken @ 15,000ft
    Raw: TAF KHRT 291000Z 2910/3016 05009KT 9999 BKN150 QNH3004INS BECMG 2912/2913 05009KT 9999 SCT150 QNH3010INS BECMG 2917/2918 15009KT 9999 SCT120 QNH3003INS BECMG 3006/3007 03009KT 9999 BKN150 QNH3002INS TX34/2920Z TN22/2911Z
  • TAF
    2024-05-29 07:00:00 CDT – 2024-05-29 12:00:00 CDT
    Ceiling Wind Weather Visbility
    Sky clear 50° @ 9kt N/A 6SM
    Clouds: Scattered @ 15,000ft
    Raw: TAF KHRT 291000Z 2910/3016 05009KT 9999 BKN150 QNH3004INS BECMG 2912/2913 05009KT 9999 SCT150 QNH3010INS BECMG 2917/2918 15009KT 9999 SCT120 QNH3003INS BECMG 3006/3007 03009KT 9999 BKN150 QNH3002INS TX34/2920Z TN22/2911Z
  • TAF
    2024-05-29 12:00:00 CDT – 2024-05-30 01:00:00 CDT
    Ceiling Wind Weather Visbility
    Sky clear 150° @ 9kt N/A 6SM
    Clouds: Scattered @ 12,000ft
    Raw: TAF KHRT 291000Z 2910/3016 05009KT 9999 BKN150 QNH3004INS BECMG 2912/2913 05009KT 9999 SCT150 QNH3010INS BECMG 2917/2918 15009KT 9999 SCT120 QNH3003INS BECMG 3006/3007 03009KT 9999 BKN150 QNH3002INS TX34/2920Z TN22/2911Z
  • TAF
    2024-05-30 01:00:00 CDT – 2024-05-30 11:00:00 CDT
    Ceiling Wind Weather Visbility
    15,000ft 30° @ 9kt N/A 6SM
    Clouds: Broken @ 15,000ft
    Raw: TAF KHRT 291000Z 2910/3016 05009KT 9999 BKN150 QNH3004INS BECMG 2912/2913 05009KT 9999 SCT150 QNH3010INS BECMG 2917/2918 15009KT 9999 SCT120 QNH3003INS BECMG 3006/3007 03009KT 9999 BKN150 QNH3002INS TX34/2920Z TN22/2911Z
Click/tap to add an annotation marker to the map
Airport Webcams
No webcams added yet.
Direct links to live image URLs will be displayed inline on this page. URLs to separate webpages will be linked to.
URL:
Direct links to live image URLs will be displayed inline on this page. URLs to separate webpages will be linked to.
URL:
Remarks
  • Bearing strength ry 18-36: st174 tt352 trt495 tdt 794.
  • Jasu: (a/m32a-86d) (a/m32a-95) (mep-360a)
  • Fluid: presair lox lpox. lox na for f-16, f-15, f-18, a-10, & t-38 acft.
  • Oil: o-148-156 soap
  • Tran alert: trans acft must have ppr and use flw-me to prk svc avbl 1300-0500z++. tran alert will not support lcl, round robins in or out and back tran acft. fleet svc avbl 1500-2200z++ dsn 579-5781/3901.
Comments
Leave a comment What was your experience like at this airport?